sensor_id;sensor_type;location;lat;lon;timestamp;pressure;altitude;pressure_sealevel;temperature;humidity
49104;BME280;34915;52.926;11.116;2023-01-30T00:01:46;101083.88;;;3.68;100.00
49104;BME280;34915;52.926;11.116;2023-01-30T00:04:12;101094.41;;;3.66;100.00
49104;BME280;34915;52.926;11.116;2023-01-30T00:06:39;101083.75;;;3.71;100.00
49104;BME280;34915;52.926;11.116;2023-01-30T00:09:05;101075.53;;;3.80;100.00
49104;BME280;34915;52.926;11.116;2023-01-30T00:11:30;101069.41;;;3.81;100.00
49104;BME280;34915;52.926;11.116;2023-01-30T00:13:58;101056.34;;;3.79;100.00
49104;BME280;34915;52.926;11.116;2023-01-30T00:16:24;101053.56;;;3.84;100.00
49104;BME280;34915;52.926;11.116;2023-01-30T00:18:50;101037.84;;;3.84;100.00
49104;BME280;34915;52.926;11.116;2023-01-30T00:21:16;101035.88;;;3.89;100.00
49104;BME280;34915;52.926;11.116;2023-01-30T00:23:44;101023.69;;;3.88;100.00
49104;BME280;34915;52.926;11.116;2023-01-30T00:26:11;101023.69;;;3.88;100.00
49104;BME280;34915;52.926;11.116;2023-01-30T00:28:37;100997.34;;;3.90;100.00
49104;BME280;34915;52.926;11.116;2023-01-30T00:31:07;101007.84;;;3.90;100.00
49104;BME280;34915;52.926;11.116;2023-01-30T00:33:36;101003.34;;;3.94;100.00
49104;BME280;34915;52.926;11.116;2023-01-30T00:36:03;101019.06;;;3.94;100.00
49104;BME280;34915;52.926;11.116;2023-01-30T00:38:29;101028.56;;;3.96;100.00
49104;BME280;34915;52.926;11.116;2023-01-30T00:40:55;101028.47;;;3.99;100.00
49104;BME280;34915;52.926;11.116;2023-01-30T00:43:21;101044.28;;;3.96;100.00
49104;BME280;34915;52.926;11.116;2023-01-30T00:46:15;101032.78;;;4.00;100.00
49104;BME280;34915;52.926;11.116;2023-01-30T00:49:00;101031.88;;;4.01;100.00
49104;BME280;34915;52.926;11.116;2023-01-30T00:51:25;101043.25;;;4.00;100.00
49104;BME280;34915;52.926;11.116;2023-01-30T00:53:51;101021.25;;;4.04;100.00
49104;BME280;34915;52.926;11.116;2023-01-30T00:56:16;101011.75;;;4.02;100.00
49104;BME280;34915;52.926;11.116;2023-01-30T00:58:42;101000.41;;;4.01;100.00
49104;BME280;34915;52.926;11.116;2023-01-30T01:01:08;100990.72;;;4.03;100.00
49104;BME280;34915;52.926;11.116;2023-01-30T01:03:33;100991.78;;;3.99;100.00
49104;BME280;34915;52.926;11.116;2023-01-30T01:05:59;100964.22;;;3.90;100.00
49104;BME280;34915;52.926;11.116;2023-01-30T01:08:25;100959.84;;;3.90;100.00
49104;BME280;34915;52.926;11.116;2023-01-30T01:10:50;100957.16;;;3.91;100.00
49104;BME280;34915;52.926;11.116;2023-01-30T01:13:16;100959.13;;;3.87;100.00
49104;BME280;34915;52.926;11.116;2023-01-30T01:15:42;100954.47;;;3.93;100.00
49104;BME280;34915;52.926;11.116;2023-01-30T01:18:08;100948.25;;;3.95;100.00
49104;BME280;34915;52.926;11.116;2023-01-30T01:20:33;100937.78;;;3.95;100.00
49104;BME280;34915;52.926;11.116;2023-01-30T01:22:59;100925.72;;;3.91;100.00
49104;BME280;34915;52.926;11.116;2023-01-30T01:25:25;100935.09;;;3.97;100.00
49104;BME280;34915;52.926;11.116;2023-01-30T01:27:51;100915.78;;;3.99;100.00
49104;BME280;34915;52.926;11.116;2023-01-30T01:30:17;100907.81;;;4.02;100.00
49104;BME280;34915;52.926;11.116;2023-01-30T01:32:43;100900.97;;;3.98;100.00
49104;BME280;34915;52.926;11.116;2023-01-30T01:35:09;100909.47;;;4.03;100.00
49104;BME280;34915;52.926;11.116;2023-01-30T01:37:36;100893.13;;;3.98;100.00
49104;BME280;34915;52.926;11.116;2023-01-30T01:40:05;100889.19;;;4.08;100.00
49104;BME280;34915;52.926;11.116;2023-01-30T01:42:49;100880.31;;;4.11;100.00
49104;BME280;34915;52.926;11.116;2023-01-30T01:45:19;100882.88;;;4.12;100.00
49104;BME280;34915;52.926;11.116;2023-01-30T01:48:07;100874.88;;;4.15;100.00
49104;BME280;34915;52.926;11.116;2023-01-30T01:50:39;100860.09;;;4.14;100.00
49104;BME280;34915;52.926;11.116;2023-01-30T01:53:07;100844.50;;;4.11;100.00
49104;BME280;34915;52.926;11.116;2023-01-30T01:55:35;100854.72;;;4.17;100.00
49104;BME280;34915;52.926;11.116;2023-01-30T01:58:06;100861.66;;;4.18;100.00
49104;BME280;34915;52.926;11.116;2023-01-30T02:00:35;100843.19;;;4.21;100.00
49104;BME280;34915;52.926;11.116;2023-01-30T02:03:05;100825.41;;;4.28;100.00
49104;BME280;34915;52.926;11.116;2023-01-30T02:05:34;100847.91;;;4.33;100.00
49104;BME280;34915;52.926;11.116;2023-01-30T02:08:09;100840.03;;;4.33;100.00
49104;BME280;34915;52.926;11.116;2023-01-30T02:13:05;100843.69;;;4.29;100.00
49104;BME280;34915;52.926;11.116;2023-01-30T02:15:31;100838.31;;;4.32;100.00
49104;BME280;34915;52.926;11.116;2023-01-30T02:17:57;100847.75;;;4.36;100.00
49104;BME280;34915;52.926;11.116;2023-01-30T02:20:49;100832.94;;;4.35;100.00
49104;BME280;34915;52.926;11.116;2023-01-30T02:28:58;100829.41;;;4.36;100.00
49104;BME280;34915;52.926;11.116;2023-01-30T02:34:24;100826.72;;;4.38;100.00
49104;BME280;34915;52.926;11.116;2023-01-30T02:37:20;100799.75;;;4.34;100.00
49104;BME280;34915;52.926;11.116;2023-01-30T02:42:50;100793.72;;;4.52;100.00
49104;BME280;34915;52.926;11.116;2023-01-30T02:45:35;100779.50;;;4.56;100.00
49104;BME280;34915;52.926;11.116;2023-01-30T02:48:15;100775.84;;;4.60;100.00
49104;BME280;34915;52.926;11.116;2023-01-30T02:50:49;100761.31;;;4.53;100.00
49104;BME280;34915;52.926;11.116;2023-01-30T02:53:18;100765.50;;;4.57;100.00
49104;BME280;34915;52.926;11.116;2023-01-30T02:55:44;100749.75;;;4.57;100.00
49104;BME280;34915;52.926;11.116;2023-01-30T02:58:10;100739.13;;;4.60;100.00
49104;BME280;34915;52.926;11.116;2023-01-30T03:10:12;100742.09;;;4.71;100.00
49104;BME280;34915;52.926;11.116;2023-01-30T03:12:30;100732.38;;;4.73;100.00
49104;BME280;34915;52.926;11.116;2023-01-30T03:15:09;100731.47;;;4.74;100.00
49104;BME280;34915;52.926;11.116;2023-01-30T03:17:41;100715.88;;;4.71;100.00
49104;BME280;34915;52.926;11.116;2023-01-30T03:20:09;100696.72;;;4.69;100.00
49104;BME280;34915;52.926;11.116;2023-01-30T03:22:34;100710.63;;;4.71;100.00
49104;BME280;34915;52.926;11.116;2023-01-30T03:25:00;100697.72;;;4.66;100.00
49104;BME280;34915;52.926;11.116;2023-01-30T03:27:26;100698.56;;;4.67;100.00
49104;BME280;34915;52.926;11.116;2023-01-30T03:29:52;100709.06;;;4.67;100.00
49104;BME280;34915;52.926;11.116;2023-01-30T03:32:17;100685.38;;;4.68;100.00
49104;BME280;34915;52.926;11.116;2023-01-30T03:34:43;100686.50;;;4.63;100.00
49104;BME280;34915;52.926;11.116;2023-01-30T03:37:09;100684.53;;;4.68;100.00
49104;BME280;34915;52.926;11.116;2023-01-30T03:39:34;100675.88;;;4.66;100.00
49104;BME280;34915;52.926;11.116;2023-01-30T03:42:00;100679.16;;;4.71;100.00
49104;BME280;34915;52.926;11.116;2023-01-30T03:44:26;100687.94;;;4.70;100.00
49104;BME280;34915;52.926;11.116;2023-01-30T03:46:51;100673.03;;;4.70;100.00
49104;BME280;34915;52.926;11.116;2023-01-30T03:49:17;100659.84;;;4.72;100.00
49104;BME280;34915;52.926;11.116;2023-01-30T03:51:42;100661.69;;;4.70;100.00
49104;BME280;34915;52.926;11.116;2023-01-30T03:54:08;100656.59;;;4.67;100.00
49104;BME280;34915;52.926;11.116;2023-01-30T03:56:33;100654.59;;;4.72;100.00
49104;BME280;34915;52.926;11.116;2023-01-30T03:58:59;100652.63;;;4.77;100.00
49104;BME280;34915;52.926;11.116;2023-01-30T04:01:25;100654.28;;;4.78;100.00
49104;BME280;34915;52.926;11.116;2023-01-30T04:03:50;100650.75;;;4.79;100.00
49104;BME280;34915;52.926;11.116;2023-01-30T04:06:16;100647.22;;;4.80;100.00
49104;BME280;34915;52.926;11.116;2023-01-30T04:08:44;100638.56;;;4.78;100.00
49104;BME280;34915;52.926;11.116;2023-01-30T04:11:10;100638.25;;;4.84;100.00
49104;BME280;34915;52.926;11.116;2023-01-30T04:13:35;100641.81;;;4.83;100.00
49104;BME280;34915;52.926;11.116;2023-01-30T04:16:16;100642.50;;;4.86;100.00
49104;BME280;34915;52.926;11.116;2023-01-30T04:18:42;100620.69;;;4.86;100.00
49104;BME280;34915;52.926;11.116;2023-01-30T04:21:07;100629.31;;;4.88;100.00
49104;BME280;34915;52.926;11.116;2023-01-30T04:23:33;100620.53;;;4.88;100.00
49104;BME280;34915;52.926;11.116;2023-01-30T04:25:58;100611.09;;;4.85;100.00
49104;BME280;34915;52.926;11.116;2023-01-30T04:28:24;100616.81;;;4.92;100.00
49104;BME280;34915;52.926;11.116;2023-01-30T04:30:51;100622.06;;;4.92;100.00
49104;BME280;34915;52.926;11.116;2023-01-30T04:33:17;100608.00;;;4.93;100.00
49104;BME280;34915;52.926;11.116;2023-01-30T04:35:53;100603.47;;;4.97;100.00
49104;BME280;34915;52.926;11.116;2023-01-30T04:38:20;100584.47;;;4.92;100.00
49104;BME280;34915;52.926;11.116;2023-01-30T04:40:49;100592.97;;;4.97;100.00
49104;BME280;34915;52.926;11.116;2023-01-30T04:43:16;100583.16;;;5.00;100.00
49104;BME280;34915;52.926;11.116;2023-01-30T04:45:45;100595.38;;;5.01;100.00
49104;BME280;34915;52.926;11.116;2023-01-30T04:48:12;100581.28;;;5.02;100.00
49104;BME280;34915;52.926;11.116;2023-01-30T04:50:39;100565.53;;;5.02;100.00
49104;BME280;34915;52.926;11.116;2023-01-30T04:53:04;100570.78;;;5.02;100.00
49104;BME280;34915;52.926;11.116;2023-01-30T04:55:30;100572.66;;;5.00;100.00
49104;BME280;34915;52.926;11.116;2023-01-30T04:57:56;100574.81;;;5.09;100.00
49104;BME280;34915;52.926;11.116;2023-01-30T05:00:22;100575.59;;;5.11;100.00
49104;BME280;34915;52.926;11.116;2023-01-30T05:02:51;100585.94;;;5.14;100.00
49104;BME280;34915;52.926;11.116;2023-01-30T05:05:17;100556.97;;;5.16;100.00
49104;BME280;34915;52.926;11.116;2023-01-30T05:07:43;100554.28;;;5.17;100.00
49104;BME280;34915;52.926;11.116;2023-01-30T05:10:10;100543.78;;;5.17;100.00
49104;BME280;34915;52.926;11.116;2023-01-30T05:12:36;100532.25;;;5.20;100.00
49104;BME280;34915;52.926;11.116;2023-01-30T05:15:01;100526.31;;;5.16;100.00
49104;BME280;34915;52.926;11.116;2023-01-30T05:17:27;100531.41;;;5.19;100.00
49104;BME280;34915;52.926;11.116;2023-01-30T05:19:52;100511.25;;;5.20;100.00
49104;BME280;34915;52.926;11.116;2023-01-30T05:22:18;100508.53;;;5.21;100.00
49104;BME280;34915;52.926;11.116;2023-01-30T05:24:44;100501.44;;;5.23;100.00
49104;BME280;34915;52.926;11.116;2023-01-30T05:27:10;100506.38;;;5.29;100.00
49104;BME280;34915;52.926;11.116;2023-01-30T05:29:35;100497.41;;;5.33;100.00
49104;BME280;34915;52.926;11.116;2023-01-30T05:32:03;100499.09;;;5.34;100.00
49104;BME280;34915;52.926;11.116;2023-01-30T05:34:28;100497.91;;;5.39;100.00
49104;BME280;34915;52.926;11.116;2023-01-30T05:36:54;100497.06;;;5.39;100.00
49104;BME280;34915;52.926;11.116;2023-01-30T05:39:20;100494.28;;;5.42;100.00
49104;BME280;34915;52.926;11.116;2023-01-30T05:41:45;100507.25;;;5.45;100.00
49104;BME280;34915;52.926;11.116;2023-01-30T05:44:11;100507.25;;;5.45;100.00
49104;BME280;34915;52.926;11.116;2023-01-30T05:46:36;100507.25;;;5.45;100.00
49104;BME280;34915;52.926;11.116;2023-01-30T05:49:03;100505.53;;;5.44;100.00
49104;BME280;34915;52.926;11.116;2023-01-30T05:51:29;100493.94;;;5.48;100.00
49104;BME280;34915;52.926;11.116;2023-01-30T05:53:55;100488.09;;;5.43;100.00
49104;BME280;34915;52.926;11.116;2023-01-30T05:56:21;100503.19;;;5.55;100.00
49104;BME280;34915;52.926;11.116;2023-01-30T05:58:54;100508.47;;;5.55;100.00
49104;BME280;34915;52.926;11.116;2023-01-30T06:01:21;100496.25;;;5.54;100.00
49104;BME280;34915;52.926;11.116;2023-01-30T06:03:48;100506.75;;;5.54;100.00
49104;BME280;34915;52.926;11.116;2023-01-30T06:06:13;100499.63;;;5.56;100.00
49104;BME280;34915;52.926;11.116;2023-01-30T06:08:39;100506.59;;;5.57;100.00
49104;BME280;34915;52.926;11.116;2023-01-30T06:11:07;100510.91;;;5.58;100.00
49104;BME280;34915;52.926;11.116;2023-01-30T06:13:34;100513.72;;;5.55;100.00
49104;BME280;34915;52.926;11.116;2023-01-30T06:16:00;100532.84;;;5.57;100.00
49104;BME280;34915;52.926;11.116;2023-01-30T06:18:26;100525.06;;;5.55;100.00
49104;BME280;34915;52.926;11.116;2023-01-30T06:20:52;100525.88;;;5.56;100.00
49104;BME280;34915;52.926;11.116;2023-01-30T06:23:18;100518.78;;;5.58;100.00
49104;BME280;34915;52.926;11.116;2023-01-30T06:25:48;100523.09;;;5.59;100.00
49104;BME280;34915;52.926;11.116;2023-01-30T06:28:14;100535.47;;;5.57;100.00
49104;BME280;34915;52.926;11.116;2023-01-30T06:30:41;100538.09;;;5.57;100.00
49104;BME280;34915;52.926;11.116;2023-01-30T06:33:07;100527.06;;;5.50;100.00
49104;BME280;34915;52.926;11.116;2023-01-30T06:35:33;100524.69;;;5.46;100.00
49104;BME280;34915;52.926;11.116;2023-01-30T06:37:58;100528.09;;;5.48;100.00
49104;BME280;34915;52.926;11.116;2023-01-30T06:40:24;100538.44;;;5.51;100.00
49104;BME280;34915;52.926;11.116;2023-01-30T06:42:50;100528.09;;;5.48;100.00
49104;BME280;34915;52.926;11.116;2023-01-30T06:45:17;100534.88;;;5.52;100.00
49104;BME280;34915;52.926;11.116;2023-01-30T06:47:48;100552.31;;;5.53;100.00
49104;BME280;34915;52.926;11.116;2023-01-30T06:50:16;100540.28;;;5.49;100.00
49104;BME280;34915;52.926;11.116;2023-01-30T06:52:43;100537.56;;;5.50;100.00
49104;BME280;34915;52.926;11.116;2023-01-30T06:55:10;100537.06;;;5.44;100.00
49104;BME280;34915;52.926;11.116;2023-01-30T06:57:36;100540.59;;;5.43;100.00
49104;BME280;34915;52.926;11.116;2023-01-30T07:00:05;100541.38;;;5.45;100.00
49104;BME280;34915;52.926;11.116;2023-01-30T07:02:31;100546.03;;;5.40;100.00
49104;BME280;34915;52.926;11.116;2023-01-30T07:05:00;100556.53;;;5.40;100.00
49104;BME280;34915;52.926;11.116;2023-01-30T07:07:27;100559.06;;;5.41;100.00
49104;BME280;34915;52.926;11.116;2023-01-30T07:09:53;100543.13;;;5.29;100.00
49104;BME280;34915;52.926;11.116;2023-01-30T07:12:20;100549.94;;;5.33;100.00
49104;BME280;34915;52.926;11.116;2023-01-30T07:14:45;100556.34;;;5.43;100.00
49104;BME280;34915;52.926;11.116;2023-01-30T07:17:11;100552.81;;;5.44;100.00
49104;BME280;34915;52.926;11.116;2023-01-30T07:19:36;100567.03;;;5.40;100.00
49104;BME280;34915;52.926;11.116;2023-01-30T07:22:03;100565.19;;;5.42;100.00
49104;BME280;34915;52.926;11.116;2023-01-30T07:24:29;100577.22;;;5.46;100.00
49104;BME280;34915;52.926;11.116;2023-01-30T07:26:55;100575.22;;;5.51;100.00
49104;BME280;34915;52.926;11.116;2023-01-30T07:29:20;100577.03;;;5.49;100.00
49104;BME280;34915;52.926;11.116;2023-01-30T07:31:46;100578.75;;;5.50;100.00
49104;BME280;34915;52.926;11.116;2023-01-30T07:34:12;100583.16;;;5.49;100.00
49104;BME280;34915;52.926;11.116;2023-01-30T07:36:37;100570.19;;;5.46;100.00
49104;BME280;34915;52.926;11.116;2023-01-30T07:39:04;100571.78;;;5.49;100.00
49104;BME280;34915;52.926;11.116;2023-01-30T07:41:30;100582.00;;;5.55;100.00
49104;BME280;34915;52.926;11.116;2023-01-30T07:43:56;100576.75;;;5.55;100.00
49104;BME280;34915;52.926;11.116;2023-01-30T07:46:21;100582.47;;;5.46;100.00
49104;BME280;34915;52.926;11.116;2023-01-30T07:48:47;100561.78;;;5.40;100.00
49104;BME280;34915;52.926;11.116;2023-01-30T07:51:12;100587.56;;;5.49;100.00
49104;BME280;34915;52.926;11.116;2023-01-30T07:53:38;100597.94;;;5.52;100.00
49104;BME280;34915;52.926;11.116;2023-01-30T07:56:11;100596.06;;;5.54;100.00
49104;BME280;34915;52.926;11.116;2023-01-30T07:58:38;100597.94;;;5.52;100.00
49104;BME280;34915;52.926;11.116;2023-01-30T08:01:04;100596.97;;;5.53;100.00
49104;BME280;34915;52.926;11.116;2023-01-30T08:03:30;100598.84;;;5.51;100.00
49104;BME280;34915;52.926;11.116;2023-01-30T08:05:56;100598.22;;;5.46;100.00
49104;BME280;34915;52.926;11.116;2023-01-30T08:08:21;100594.59;;;5.48;100.00
49104;BME280;34915;52.926;11.116;2023-01-30T08:10:48;100603.38;;;5.47;100.00
49104;BME280;34915;52.926;11.116;2023-01-30T08:13:13;100588.03;;;5.40;100.00
49104;BME280;34915;52.926;11.116;2023-01-30T08:15:39;100591.63;;;5.39;100.00
49104;BME280;34915;52.926;11.116;2023-01-30T08:18:04;100601.97;;;5.42;100.00
49104;BME280;34915;52.926;11.116;2023-01-30T08:20:32;100604.19;;;5.49;100.00
49104;BME280;34915;52.926;11.116;2023-01-30T08:22:58;100603.84;;;5.55;100.00
49104;BME280;34915;52.926;11.116;2023-01-30T08:25:24;100601.91;;;5.59;100.00
49104;BME280;34915;52.926;11.116;2023-01-30T08:27:50;100597.28;;;5.64;100.00
49104;BME280;34915;52.926;11.116;2023-01-30T08:30:16;100592.34;;;5.58;100.00
49104;BME280;34915;52.926;11.116;2023-01-30T08:32:42;100605.91;;;5.66;100.00
49104;BME280;34915;52.926;11.116;2023-01-30T08:35:09;100598.78;;;5.68;100.00
49104;BME280;34915;52.926;11.116;2023-01-30T08:37:34;100595.22;;;5.69;100.00
49104;BME280;34915;52.926;11.116;2023-01-30T08:40:00;100576.09;;;5.67;100.00
49104;BME280;34915;52.926;11.116;2023-01-30T08:42:26;100592.03;;;5.64;100.00
49104;BME280;34915;52.926;11.116;2023-01-30T08:44:51;100592.03;;;5.64;100.00
49104;BME280;34915;52.926;11.116;2023-01-30T08:47:17;100577.47;;;5.74;100.00
49104;BME280;34915;52.926;11.116;2023-01-30T08:49:42;100582.72;;;5.74;100.00
49104;BME280;34915;52.926;11.116;2023-01-30T08:52:09;100594.78;;;5.78;100.00
49104;BME280;34915;52.926;11.116;2023-01-30T08:54:34;100598.03;;;5.83;100.00
49104;BME280;34915;52.926;11.116;2023-01-30T08:57:00;100597.34;;;5.94;100.00
49104;BME280;34915;52.926;11.116;2023-01-30T08:59:26;100584.78;;;5.99;100.00
49104;BME280;34915;52.926;11.116;2023-01-30T09:01:51;100579.19;;;6.05;100.00
49104;BME280;34915;52.926;11.116;2023-01-30T09:04:17;100592.00;;;6.11;100.00
49104;BME280;34915;52.926;11.116;2023-01-30T09:06:42;100574.97;;;6.18;100.00
49104;BME280;34915;52.926;11.116;2023-01-30T09:09:08;100574.44;;;6.27;100.00
49104;BME280;34915;52.926;11.116;2023-01-30T09:11:34;100581.22;;;6.31;100.00
49104;BME280;34915;52.926;11.116;2023-01-30T09:13:59;100579.34;;;6.33;100.00
49104;BME280;34915;52.926;11.116;2023-01-30T09:16:25;100582.16;;;6.30;100.00
49104;BME280;34915;52.926;11.116;2023-01-30T09:18:51;100574.25;;;6.30;99.90
49104;BME280;34915;52.926;11.116;2023-01-30T09:21:16;100577.16;;;6.41;99.16
49104;BME280;34915;52.926;11.116;2023-01-30T09:23:42;100563.06;;;6.42;99.54
49104;BME280;34915;52.926;11.116;2023-01-30T09:26:08;100571.53;;;6.32;100.00
49104;BME280;34915;52.926;11.116;2023-01-30T09:28:34;100571.06;;;6.25;100.00
49104;BME280;34915;52.926;11.116;2023-01-30T09:31:00;100562.25;;;6.26;100.00
49104;BME280;34915;52.926;11.116;2023-01-30T09:33:26;100553.56;;;6.24;100.00
49104;BME280;34915;52.926;11.116;2023-01-30T09:35:52;100556.97;;;6.26;100.00
49104;BME280;34915;52.926;11.116;2023-01-30T09:38:18;100553.22;;;6.30;100.00
49104;BME280;34915;52.926;11.116;2023-01-30T09:56:28;100549.91;;;7.00;93.95
49104;BME280;34915;52.926;11.116;2023-01-30T09:58:56;100560.81;;;7.08;92.75
49104;BME280;34915;52.926;11.116;2023-01-30T10:01:29;100544.66;;;7.14;91.75
49104;BME280;34915;52.926;11.116;2023-01-30T10:06:27;100557.09;;;7.12;91.18
49104;BME280;34915;52.926;11.116;2023-01-30T10:11:45;100536.38;;;7.06;92.16
49104;BME280;34915;52.926;11.116;2023-01-30T10:19:36;100535.34;;;7.09;91.16
49104;BME280;34915;52.926;11.116;2023-01-30T10:27:46;100527.84;;;6.74;93.46
49104;BME280;34915;52.926;11.116;2023-01-30T10:30:17;100515.13;;;6.66;94.28
49104;BME280;34915;52.926;11.116;2023-01-30T10:32:52;100528.56;;;6.62;93.56
49104;BME280;34915;52.926;11.116;2023-01-30T10:35:26;100519.19;;;6.72;92.94
49104;BME280;34915;52.926;11.116;2023-01-30T10:38:19;100525.63;;;6.82;91.82
49104;BME280;34915;52.926;11.116;2023-01-30T10:41:03;100508.13;;;6.81;92.16
49104;BME280;34915;52.926;11.116;2023-01-30T10:43:35;100519.97;;;6.87;91.20
49104;BME280;34915;52.926;11.116;2023-01-30T10:46:22;100492.53;;;6.91;91.32
49104;BME280;34915;52.926;11.116;2023-01-30T10:49:14;100513.78;;;7.02;89.55
49104;BME280;34915;52.926;11.116;2023-01-30T10:51:56;100499.88;;;7.00;88.42
49104;BME280;34915;52.926;11.116;2023-01-30T10:54:39;100498.56;;;6.93;89.36
49104;BME280;34915;52.926;11.116;2023-01-30T10:59:59;100494.41;;;6.76;92.99
49104;BME280;34915;52.926;11.116;2023-01-30T11:05:14;100478.53;;;6.48;97.86
49104;BME280;34915;52.926;11.116;2023-01-30T11:07:42;100485.47;;;6.49;96.75
49104;BME280;34915;52.926;11.116;2023-01-30T11:10:26;100476.47;;;6.53;96.25
49104;BME280;34915;52.926;11.116;2023-01-30T11:12:59;100468.81;;;6.64;93.89
49104;BME280;34915;52.926;11.116;2023-01-30T11:15:41;100476.25;;;6.71;92.35
49104;BME280;34915;52.926;11.116;2023-01-30T11:18:08;100475.31;;;6.86;91.08
49104;BME280;34915;52.926;11.116;2023-01-30T11:20:38;100465.53;;;6.88;91.04
49104;BME280;34915;52.926;11.116;2023-01-30T11:23:52;100476.38;;;7.11;89.78
49104;BME280;34915;52.926;11.116;2023-01-30T11:25:55;100463.59;;;7.19;89.01
49104;BME280;34915;52.926;11.116;2023-01-30T11:28:22;100468.28;;;7.14;88.44
49104;BME280;34915;52.926;11.116;2023-01-30T11:30:54;100444.19;;;7.20;88.31
49104;BME280;34915;52.926;11.116;2023-01-30T11:33:32;100465.06;;;7.23;88.33
49104;BME280;34915;52.926;11.116;2023-01-30T11:36:04;100463.22;;;7.25;88.72
49104;BME280;34915;52.926;11.116;2023-01-30T11:38:32;100452.28;;;7.31;88.16
49104;BME280;34915;52.926;11.116;2023-01-30T11:43:34;100422.94;;;7.23;88.74
49104;BME280;34915;52.926;11.116;2023-01-30T11:46:01;100425.75;;;7.34;88.57
49104;BME280;34915;52.926;11.116;2023-01-30T11:48:31;100426.69;;;7.47;88.06
49104;BME280;34915;52.926;11.116;2023-01-30T11:51:00;100405.22;;;7.53;88.41
49104;BME280;34915;52.926;11.116;2023-01-30T11:53:46;100418.63;;;7.62;86.76
49104;BME280;34915;52.926;11.116;2023-01-30T11:56:21;100422.31;;;7.60;87.81
49104;BME280;34915;52.926;11.116;2023-01-30T11:58:54;100414.97;;;7.65;87.39
49104;BME280;34915;52.926;11.116;2023-01-30T12:01:31;100411.78;;;7.60;87.66
49104;BME280;34915;52.926;11.116;2023-01-30T12:03:58;100405.06;;;7.68;86.72
49104;BME280;34915;52.926;11.116;2023-01-30T12:06:29;100415.22;;;7.74;86.00
49104;BME280;34915;52.926;11.116;2023-01-30T12:08:56;100412.69;;;7.73;85.74
49104;BME280;34915;52.926;11.116;2023-01-30T12:11:28;100412.88;;;7.70;85.33
49104;BME280;34915;52.926;11.116;2023-01-30T12:14:05;100406.31;;;7.63;85.48
49104;BME280;34915;52.926;11.116;2023-01-30T12:16:49;100399.53;;;7.59;87.89
49104;BME280;34915;52.926;11.116;2023-01-30T12:19:20;100380.78;;;7.23;90.73
49104;BME280;34915;52.926;11.116;2023-01-30T12:21:54;100397.88;;;6.90;94.61
49104;BME280;34915;52.926;11.116;2023-01-30T12:24:27;100404.69;;;6.51;98.12
49104;BME280;34915;52.926;11.116;2023-01-30T12:27:11;100431.13;;;6.34;100.00
49104;BME280;34915;52.926;11.116;2023-01-30T12:29:59;100435.38;;;6.07;100.00
49104;BME280;34915;52.926;11.116;2023-01-30T12:32:30;100454.97;;;5.87;100.00
49104;BME280;34915;52.926;11.116;2023-01-30T12:34:56;100477.34;;;5.63;100.00
